Time;durP1;ratioP1;P1;durP2;ratioP2;P2;SDS_P1;SDS_P2;PMS_P1;PMS_P2;Temp;Humidity;BMP_temperature;BMP_pressure;BME280_temperature;BME280_humidity;BME280_pressure;Samples;Min_cycle;Max_cycle;Signal;HPM_P1;HPM_P2
2023/02/07 00:01:24;;;;;;;21.27;12.20;;;;;;;-4.12;100.00;98079.78;6216528;23;20454;-87
2023/02/07 00:03:55;;;;;;;19.60;11.20;;;;;;;-4.17;100.00;98081.56;6215981;23;20453;-87
2023/02/07 00:06:29;;;;;;;21.30;11.50;;;;;;;-4.25;100.00;98088.53;6216631;23;20999;-87
2023/02/07 00:08:57;;;;;;;24.03;12.30;;;;;;;-4.28;100.00;98079.16;6216308;23;20490;-87
2023/02/07 00:11:23;;;;;;;24.67;13.30;;;;;;;-4.29;100.00;98072.31;6216128;23;20466;-87
2023/02/07 00:13:53;;;;;;;24.43;12.33;;;;;;;-4.28;100.00;98078.31;6216014;23;20482;-87
2023/02/07 00:16:19;;;;;;;22.03;11.37;;;;;;;-4.34;100.00;98068.13;6241183;23;20437;-87
2023/02/07 00:18:45;;;;;;;21.80;11.80;;;;;;;-4.36;100.00;98070.72;6215733;23;20414;-86
2023/02/07 00:21:15;;;;;;;20.73;11.53;;;;;;;-4.39;100.00;98067.31;6216037;23;20541;-87
2023/02/07 00:23:56;;;;;;;20.23;11.90;;;;;;;-4.38;100.00;98064.75;6216591;23;20411;-87
2023/02/07 00:26:24;;;;;;;18.97;11.37;;;;;;;-4.37;100.00;98079.28;6216597;23;20506;-86
2023/02/07 00:28:51;;;;;;;22.10;12.40;;;;;;;-4.42;100.00;98080.25;6216536;23;20419;-87
2023/02/07 00:31:29;;;;;;;22.27;12.00;;;;;;;-4.38;100.00;98084.47;6215603;23;20407;-86
2023/02/07 00:33:59;;;;;;;18.10;11.33;;;;;;;-4.35;100.00;98076.72;6216174;23;20438;-87
2023/02/07 00:36:26;;;;;;;20.07;11.37;;;;;;;-4.40;100.00;98069.06;6215733;23;20921;-87
2023/02/07 00:38:56;;;;;;;19.00;11.57;;;;;;;-4.45;100.00;98081.13;6215979;23;20407;-87
2023/02/07 00:41:22;;;;;;;19.30;12.00;;;;;;;-4.51;100.00;98082.06;6215426;23;20407;-87
2023/02/07 00:43:48;;;;;;;24.77;12.13;;;;;;;-4.56;100.00;98089.00;6216370;23;20415;-86
2023/02/07 00:46:17;;;;;;;20.90;11.77;;;;;;;-4.64;100.00;98088.22;6215506;23;20415;-86
2023/02/07 00:48:43;;;;;;;19.23;11.80;;;;;;;-4.70;100.00;98079.75;6215636;23;20087;-86
2023/02/07 00:51:12;;;;;;;20.17;11.27;;;;;;;-4.71;100.00;98075.50;6216225;23;20414;-87
2023/02/07 00:53:39;;;;;;;19.97;12.00;;;;;;;-4.78;100.00;98062.75;6215746;23;20486;-86
2023/02/07 00:56:06;;;;;;;24.33;13.13;;;;;;;-4.89;100.00;98063.78;6216057;23;20419;-87
2023/02/07 00:58:32;;;;;;;22.73;12.73;;;;;;;-4.91;100.00;98070.63;6215589;23;20728;-87
2023/02/07 01:00:58;;;;;;;21.00;11.97;;;;;;;-4.92;100.00;98059.53;6216018;23;20461;-86
2023/02/07 01:03:24;;;;;;;21.47;12.73;;;;;;;-4.87;100.00;98083.38;6215406;23;20407;-87
2023/02/07 01:05:57;;;;;;;24.63;13.50;;;;;;;-4.84;100.00;98077.38;6241546;22;20399;-86
2023/02/07 01:08:25;;;;;;;21.97;12.43;;;;;;;-4.89;100.00;98090.28;6215899;23;20015;-86
2023/02/07 01:10:50;;;;;;;21.60;12.47;;;;;;;-4.88;100.00;98093.69;6215808;23;20746;-86
2023/02/07 01:13:25;;;;;;;23.80;13.67;;;;;;;-4.86;100.00;98099.63;6217099;23;20432;-86
2023/02/07 01:15:51;;;;;;;25.77;13.80;;;;;;;-4.92;100.00;98105.72;6218150;23;20018;-87
2023/02/07 01:18:17;;;;;;;21.70;12.13;;;;;;;-4.89;100.00;98104.81;6216503;23;20501;-86
2023/02/07 01:20:43;;;;;;;28.50;13.50;;;;;;;-4.99;100.00;98110.06;6214960;23;20772;-86
2023/02/07 01:23:10;;;;;;;21.27;11.90;;;;;;;-5.05;100.00;98125.53;6241635;22;20391;-87
2023/02/07 01:25:38;;;;;;;23.17;12.50;;;;;;;-5.06;100.00;98139.22;6215949;23;20023;-86
2023/02/07 01:28:04;;;;;;;24.13;12.50;;;;;;;-5.05;100.00;98146.03;6215360;23;20419;-86
2023/02/07 01:30:30;;;;;;;22.03;11.63;;;;;;;-5.04;100.00;98157.16;6215490;23;21361;-86
2023/02/07 01:32:56;;;;;;;22.37;13.17;;;;;;;-4.97;100.00;98157.06;6240613;23;20014;-86
2023/02/07 01:35:22;;;;;;;23.97;13.07;;;;;;;-4.96;100.00;98155.38;6215359;23;20016;-86
2023/02/07 01:37:54;;;;;;;24.33;13.63;;;;;;;-5.06;100.00;98146.91;6215477;23;20534;-86
2023/02/07 01:40:26;;;;;;;24.67;13.53;;;;;;;-5.03;100.00;98133.19;6240278;23;20019;-86
2023/02/07 01:42:52;;;;;;;23.93;13.67;;;;;;;-5.07;100.00;98132.38;6215441;23;20426;-87
2023/02/07 01:45:37;;;;;;;22.70;12.37;;;;;;;-5.15;100.00;98146.16;6215326;23;20427;-86
2023/02/07 01:48:16;;;;;;;22.77;13.67;;;;;;;-5.10;100.00;98146.94;6216278;23;20503;-86
2023/02/07 01:50:46;;;;;;;24.50;13.07;;;;;;;-5.13;100.00;98134.16;6215367;23;20415;-87
2023/02/07 01:53:15;;;;;;;24.70;14.00;;;;;;;-5.27;100.00;98124.03;6242153;22;21012;-86
2023/02/07 01:55:58;;;;;;;22.53;14.73;;;;;;;-5.29;100.00;98110.41;6215430;23;20426;-86
2023/02/07 01:58:24;;;;;;;22.88;13.98;;;;;;;-5.31;100.00;98112.13;6214856;23;20555;-86
2023/02/07 02:00:51;;;;;;;28.17;14.47;;;;;;;-5.50;100.00;98103.75;6214094;23;20038;-86
2023/02/07 02:03:19;;;;;;;25.27;14.00;;;;;;;-5.53;100.00;98112.34;6214239;23;20423;-86
2023/02/07 02:05:46;;;;;;;27.57;14.50;;;;;;;-5.53;100.00;98107.22;6215195;23;20020;-86
2023/02/07 02:08:13;;;;;;;28.00;14.80;;;;;;;-5.56;100.00;98097.00;6215696;23;20483;-86
2023/02/07 02:10:58;;;;;;;26.20;15.73;;;;;;;-5.48;100.00;98091.78;6240667;23;20415;-86
2023/02/07 02:14:01;;;;;;;23.17;14.53;;;;;;;-5.45;100.00;98107.16;6239559;23;20019;-85
2023/02/07 02:17:11;;;;;;;23.13;13.73;;;;;;;-5.45;100.00;98102.88;6214555;23;20423;-87
2023/02/07 02:19:54;;;;;;;24.07;14.67;;;;;;;-5.43;100.00;98092.63;6235493;22;20446;-86
2023/02/07 02:22:31;;;;;;;26.07;14.57;;;;;;;-5.44;100.00;98090.88;6203664;23;20465;-86
2023/02/07 02:25:16;;;;;;;25.17;14.37;;;;;;;-5.49;100.00;98097.78;6202642;23;20424;-86
2023/02/07 02:27:59;;;;;;;24.77;14.83;;;;;;;-5.54;100.00;98095.25;6200865;23;20752;-86
2023/02/07 02:30:49;;;;;;;17.20;10.25;;;;;;;-5.52;100.00;98103.78;6176672;23;20493;-86
2023/02/07 02:33:36;;;;;;;25.47;14.13;;;;;;;-5.55;100.00;98088.44;6202402;23;20036;-86
2023/02/07 02:36:19;;;;;;;21.27;13.07;;;;;;;-5.65;100.00;98091.97;6202121;23;20432;-85
2023/02/07 02:39:13;;;;;;;24.15;13.48;;;;;;;-5.64;100.00;98082.56;6202639;23;20470;-86
2023/02/07 02:41:49;;;;;;;;;;;;;;;-5.58;100.00;98093.59;6202100;23;20023;-86
2023/02/07 02:44:27;;;;;;;25.07;13.83;;;;;;;-5.71;100.00;98097.13;6201686;23;19935;-86
2023/02/07 02:46:54;;;;;;;24.00;14.27;;;;;;;-5.73;100.00;98096.31;6201399;23;20428;-86
2023/02/07 02:49:21;;;;;;;22.77;14.82;;;;;;;-5.74;100.00;98103.13;6176833;23;20443;-86
2023/02/07 02:51:51;;;;;;;21.30;14.27;;;;;;;-5.70;100.00;98109.06;6180417;23;20013;-86
2023/02/07 02:54:27;;;;;;;24.27;14.20;;;;;;;-5.66;100.00;98115.91;6210578;23;21295;-86
2023/02/07 02:57:34;;;;;;;25.43;14.57;;;;;;;-5.66;100.00;98115.06;6188979;23;20494;-86
2023/02/07 03:00:10;;;;;;;23.67;13.60;;;;;;;-5.70;100.00;98111.63;6210877;23;20419;-86
2023/02/07 03:02:36;;;;;;;24.10;14.17;;;;;;;-5.77;100.00;98107.44;6213058;23;20474;-86
2023/02/07 03:08:21;;;;;;;26.80;14.20;;;;;;;-5.74;100.00;98107.41;6238362;23;20008;-86
2023/02/07 03:11:05;;;;;;;25.10;14.97;;;;;;;-5.68;100.00;98107.38;6212303;23;20432;-86
2023/02/07 03:13:44;;;;;;;24.27;15.47;;;;;;;-5.81;100.00;98103.22;6212660;23;20432;-86
2023/02/07 03:16:18;;;;;;;28.50;14.93;;;;;;;-5.80;100.00;98102.34;6237526;23;20427;-86
2023/02/07 03:18:44;;;;;;;25.07;15.17;;;;;;;-5.81;100.00;98098.94;6212169;23;20931;-86
2023/02/07 03:21:16;;;;;;;26.00;15.87;;;;;;;-5.76;100.00;98104.88;6212528;23;20493;-85
2023/02/07 03:23:44;;;;;;;24.07;14.63;;;;;;;-5.77;100.00;98107.44;6212715;23;20456;-86
2023/02/07 03:26:11;;;;;;;23.83;14.10;;;;;;;-5.89;100.00;98105.00;6187755;23;20629;-86
2023/02/07 03:28:40;;;;;;;22.77;13.60;;;;;;;-5.85;100.00;98101.53;6187507;23;20495;-85
2023/02/07 03:31:11;;;;;;;25.07;14.33;;;;;;;-5.90;100.00;98100.72;6186879;23;20758;-85
2023/02/07 03:33:38;;;;;;;29.03;15.97;;;;;;;-5.89;100.00;98107.56;6236944;23;20485;-85
2023/02/07 03:36:32;;;;;;;24.70;14.73;;;;;;;-5.82;100.00;98119.47;6237151;23;20432;-86
2023/02/07 03:38:58;;;;;;;22.53;13.80;;;;;;;-5.83;100.00;98117.78;6187308;23;20455;-86
2023/02/07 03:41:41;;;;;;;24.03;14.90;;;;;;;-5.82;100.00;98109.22;6211231;23;20444;-86
2023/02/07 03:44:11;;;;;;;22.02;13.43;;;;;;;-5.92;100.00;98114.41;6207515;23;20423;-86
2023/02/07 03:46:38;;;;;;;25.20;14.30;;;;;;;-5.96;100.00;98127.28;6236076;23;20015;-86
2023/02/07 03:49:06;;;;;;;26.00;14.10;;;;;;;-5.98;100.00;98119.59;6187055;23;20431;-85
2023/02/07 03:51:43;;;;;;;23.83;14.27;;;;;;;-5.88;100.00;98114.38;6211392;23;20012;-86
2023/02/07 03:54:09;;;;;;;23.40;14.37;;;;;;;-5.96;100.00;98104.22;6237987;23;20424;-86
2023/02/07 03:56:36;;;;;;;20.73;13.37;;;;;;;-6.01;100.00;98096.56;6212298;23;21050;-86
2023/02/07 03:59:02;;;;;;;25.27;14.07;;;;;;;-6.14;100.00;98092.41;6212134;23;20016;-86
2023/02/07 04:01:28;;;;;;;24.73;14.13;;;;;;;-6.06;100.00;98072.72;6211969;23;20063;-86
2023/02/07 04:03:55;;;;;;;22.60;14.00;;;;;;;-6.05;100.00;98074.41;6183736;23;20371;-85
2023/02/07 04:06:21;;;;;;;22.50;13.53;;;;;;;-6.09;100.00;98077.88;6185234;23;20012;-87
2023/02/07 04:08:47;;;;;;;23.13;13.60;;;;;;;-6.07;100.00;98072.72;6184465;23;20408;-86
2023/02/07 04:11:12;;;;;;;27.60;14.07;;;;;;;-6.07;100.00;98073.59;6208496;23;21304;-86
2023/02/07 04:13:38;;;;;;;21.00;12.70;;;;;;;-6.13;100.00;98088.16;6235098;23;20016;-86
2023/02/07 04:16:05;;;;;;;19.97;12.27;;;;;;;-6.09;100.00;98080.44;6183996;23;20013;-85
2023/02/07 04:18:31;;;;;;;21.37;13.10;;;;;;;-6.03;100.00;98079.53;6209594;23;20099;-86
2023/02/07 04:21:04;;;;;;;20.50;11.97;;;;;;;-6.10;100.00;98077.88;6184429;23;20443;-85
2023/02/07 04:23:30;;;;;;;22.05;12.82;;;;;;;-6.09;100.00;98075.31;6210557;23;20032;-86
2023/02/07 04:26:12;;;;;;;19.13;11.90;;;;;;;-6.12;100.00;98074.47;6186215;23;20015;-86
2023/02/07 04:28:38;;;;;;;19.80;11.90;;;;;;;-6.13;100.00;98076.19;6186090;23;20428;-86
2023/02/07 04:31:10;;;;;;;20.33;11.73;;;;;;;-6.03;100.00;98071.84;6235751;23;20737;-86
2023/02/07 04:33:36;;;;;;;21.65;12.13;;;;;;;-6.09;100.00;98070.19;6185916;23;20100;-86
2023/02/07 04:36:03;;;;;;;23.37;11.50;;;;;;;-6.08;100.00;98059.06;6189854;23;20052;-92
2023/02/07 04:38:29;;;;;;;24.00;13.77;;;;;;;-6.07;100.00;98063.34;6213604;23;20532;-85
2023/02/07 04:40:59;;;;;;;22.13;12.27;;;;;;;-6.17;100.00;98066.81;6212100;23;20457;-86
2023/02/07 04:43:25;;;;;;;22.27;13.07;;;;;;;-6.17;100.00;98066.81;6211722;23;20811;-87
2023/02/07 04:45:51;;;;;;;52.27;14.73;;;;;;;-5.72;100.00;98062.97;6187257;23;20419;-87
2023/02/07 04:48:17;;;;;;;21.73;12.90;;;;;;;-5.93;100.00;98046.13;6187096;23;20411;-86
2023/02/07 04:50:42;;;;;;;17.90;11.27;;;;;;;-6.05;100.00;98047.94;6212351;23;20016;-86
2023/02/07 04:53:10;;;;;;;22.67;11.30;;;;;;;-6.10;100.00;98047.13;6186288;23;20025;-86
2023/02/07 04:55:36;;;;;;;22.17;11.33;;;;;;;-6.09;100.00;98054.81;6211897;23;20017;-86
2023/02/07 04:58:03;;;;;;;17.43;10.63;;;;;;;-6.18;100.00;98060.84;6235326;23;20459;-86
2023/02/07 05:00:29;;;;;;;20.47;12.07;;;;;;;-6.20;100.00;98064.31;6184691;23;20012;-86
2023/02/07 05:02:55;;;;;;;25.87;12.10;;;;;;;-6.22;100.00;98064.31;6213079;23;20411;-86
2023/02/07 05:05:20;;;;;;;17.27;11.00;;;;;;;-6.12;100.00;98065.09;6210449;23;20047;-85
2023/02/07 05:07:46;;;;;;;22.37;10.63;;;;;;;-6.19;100.00;98059.16;6186723;23;20060;-86
2023/02/07 05:10:12;;;;;;;17.40;9.77;;;;;;;-6.22;100.00;98059.19;6186362;23;20008;-86
2023/02/07 05:12:37;;;;;;;16.70;10.40;;;;;;;-6.26;100.00;98062.63;6186601;23;20017;-86
2023/02/07 05:15:03;;;;;;;17.70;10.07;;;;;;;-6.26;100.00;98072.88;6186172;23;20012;-86
2023/02/07 05:17:33;;;;;;;19.37;10.90;;;;;;;-6.33;100.00;98070.38;6211258;23;20017;-86
2023/02/07 05:20:02;;;;;;;17.27;10.05;;;;;;;-6.36;100.00;98078.09;6235997;23;20420;-85
2023/02/07 05:22:28;;;;;;;18.45;10.98;;;;;;;-6.59;100.00;98093.59;6186179;23;20024;-85
2023/02/07 05:24:58;;;;;;;21.03;12.17;;;;;;;-6.71;100.00;98095.34;6186291;23;20020;-86
2023/02/07 05:27:23;;;;;;;20.73;12.95;;;;;;;-6.78;100.00;98085.16;6186480;23;20021;-86
2023/02/07 05:29:52;;;;;;;23.17;12.17;;;;;;;-6.72;100.00;98087.69;6210409;23;20795;-86
2023/02/07 05:35:02;;;;;;;19.75;11.82;;;;;;;-6.82;100.00;98071.53;6236723;23;20012;-85
2023/02/07 05:37:42;;;;;;;22.60;11.45;;;;;;;-6.80;100.00;98072.38;6186694;23;20319;-86
2023/02/07 05:40:09;;;;;;;19.15;11.60;;;;;;;-6.89;100.00;98070.72;6211071;23;20052;-86
2023/02/07 05:42:34;;;;;;;20.80;11.98;;;;;;;-6.91;100.00;98071.56;6208957;23;20016;-86
2023/02/07 05:45:00;;;;;;;18.60;11.73;;;;;;;-6.95;100.00;98068.16;6210157;23;20016;-86
2023/02/07 05:47:26;;;;;;;20.57;11.60;;;;;;;-6.94;100.00;98072.44;6213001;23;20062;-86
2023/02/07 05:49:52;;;;;;;20.93;11.67;;;;;;;-7.00;100.00;98081.84;6236112;23;20048;-86
2023/02/07 05:52:17;;;;;;;27.90;14.50;;;;;;;-6.98;100.00;98065.63;6185221;23;20000;-86
2023/02/07 05:54:44;;;;;;;21.83;11.73;;;;;;;-6.91;100.00;98056.22;6185251;23;20027;-85
2023/02/07 05:57:15;;;;;;;20.50;11.85;;;;;;;-6.85;100.00;98052.78;6236077;23;20404;-85
2023/02/07 05:59:41;;;;;;;23.88;12.43;;;;;;;-6.73;100.00;98045.91;6185912;23;20444;-85
2023/02/07 06:02:11;;;;;;;23.87;11.10;;;;;;;-6.56;100.00;98040.66;6185762;23;20020;-86
2023/02/07 06:04:36;;;;;;;20.13;11.27;;;;;;;-6.25;100.00;98035.31;6185479;23;20013;-88
2023/02/07 06:07:02;;;;;;;17.40;9.80;;;;;;;-6.25;100.00;98035.31;6185353;23;20013;-85
2023/02/07 06:09:34;;;;;;;16.17;8.83;;;;;;;-6.06;100.00;98034.31;6211544;23;20031;-85
2023/02/07 06:11:59;;;;;;;15.55;8.77;;;;;;;-5.87;100.00;98028.97;6206917;23;20061;-85
2023/02/07 06:14:26;;;;;;;17.70;9.90;;;;;;;-5.92;100.00;98039.25;6204083;23;20087;-85
2023/02/07 06:16:52;;;;;;;17.52;9.23;;;;;;;-6.05;100.00;98037.72;6178566;23;20051;-85
2023/02/07 06:19:17;;;;;;;21.10;10.03;;;;;;;-6.19;100.00;98045.50;6179658;23;20024;-85
2023/02/07 06:21:43;;;;;;;16.23;9.23;;;;;;;-6.32;100.00;98047.31;6203638;23;20022;-86
2023/02/07 06:24:11;;;;;;;16.63;8.63;;;;;;;-6.23;100.00;98046.41;6180757;23;20012;-85
2023/02/07 06:26:37;;;;;;;18.52;8.10;;;;;;;-6.05;100.00;98046.25;6203123;23;20005;-85
2023/02/07 06:29:03;;;;;;;16.93;8.77;;;;;;;-6.10;100.00;98055.69;6173914;23;20047;-84
2023/02/07 06:31:28;;;;;;;16.55;9.27;;;;;;;-6.02;100.00;98053.06;6193804;23;20011;-85
2023/02/07 06:33:54;;;;;;;16.97;9.07;;;;;;;-6.18;100.00;98049.75;6171512;23;20017;-84
2023/02/07 06:36:20;;;;;;;18.60;9.87;;;;;;;-6.38;100.00;98056.75;6170567;23;20016;-85
2023/02/07 06:38:46;;;;;;;19.40;10.53;;;;;;;-6.45;100.00;98058.50;6176891;23;20012;-85
2023/02/07 06:41:12;;;;;;;17.70;10.13;;;;;;;-6.58;100.00;98056.88;6178828;23;20005;-84
2023/02/07 06:43:37;;;;;;;20.23;10.50;;;;;;;-6.53;100.00;98079.03;6185108;23;20361;-85
2023/02/07 06:46:08;;;;;;;19.60;10.77;;;;;;;-6.56;100.00;98075.66;6185392;23;20028;-85
2023/02/07 06:48:34;;;;;;;19.38;11.00;;;;;;;-6.66;100.00;98085.09;6185228;23;20051;-84
2023/02/07 06:51:25;;;;;;;21.40;10.63;;;;;;;-6.71;100.00;98079.13;6184696;23;20012;-85
2023/02/07 06:53:51;;;;;;;17.38;10.70;;;;;;;-6.78;100.00;98080.03;6237111;23;20016;-85
2023/02/07 06:56:17;;;;;;;19.30;11.00;;;;;;;-6.69;100.00;98090.22;6236250;23;20056;-85
2023/02/07 06:58:44;;;;;;;19.90;11.47;;;;;;;-6.66;100.00;98091.06;6186622;23;20043;-85
2023/02/07 07:01:09;;;;;;;19.60;11.15;;;;;;;-6.68;100.00;98094.47;6188404;23;20039;-84
2023/02/07 07:03:37;;;;;;;18.17;10.83;;;;;;;-6.60;100.00;98095.28;6212550;23;20417;-85
2023/02/07 07:06:03;;;;;;;21.25;11.48;;;;;;;-6.55;100.00;98093.53;6186956;23;20076;-85
2023/02/07 07:08:29;;;;;;;20.77;13.23;;;;;;;-6.70;100.00;98091.94;6187641;23;20048;-85
2023/02/07 07:10:56;;;;;;;19.80;11.80;;;;;;;-6.70;100.00;98091.94;6211059;23;20046;-85
2023/02/07 07:13:22;;;;;;;24.40;13.20;;;;;;;-6.76;100.00;98094.53;6187127;23;20008;-85
2023/02/07 07:15:48;;;;;;;20.58;11.82;;;;;;;-6.62;100.00;98081.66;6237448;23;20035;-84
2023/02/07 07:18:13;;;;;;;22.67;12.07;;;;;;;-6.53;100.00;98089.28;6186193;23;20441;-85
2023/02/07 07:20:43;;;;;;;20.50;12.03;;;;;;;-6.38;100.00;98085.75;6211675;23;20013;-85
2023/02/07 07:23:09;;;;;;;21.92;12.75;;;;;;;-6.39;100.00;98086.63;6187682;23;20392;-85
2023/02/07 07:25:35;;;;;;;20.67;12.17;;;;;;;-6.25;100.00;98084.81;6213958;23;20012;-84
2023/02/07 07:28:00;;;;;;;22.47;12.30;;;;;;;-6.12;100.00;98075.31;6206925;23;20012;-85
2023/02/07 07:30:26;;;;;;;25.43;14.93;;;;;;;-5.74;100.00;98092.03;6235617;23;20001;-85
2023/02/07 07:32:52;;;;;;;44.83;20.57;;;;;;;-5.40;100.00;98082.28;6260984;23;20012;-85
2023/02/07 07:35:17;;;;;;;22.03;12.27;;;;;;;-5.44;100.00;98078.06;6207044;23;20020;-85
2023/02/07 07:37:44;;;;;;;35.60;17.77;;;;;;;-5.08;100.00;98083.66;6188855;23;20120;-85
2023/02/07 07:40:10;;;;;;;36.60;20.10;;;;;;;-4.66;100.00;98072.00;6211935;23;20004;-85
2023/02/07 07:42:36;;;;;;;27.83;15.50;;;;;;;-4.42;100.00;98073.38;6210975;23;20376;-85
2023/02/07 07:45:14;;;;;;;21.80;11.57;;;;;;;-4.18;100.00;98074.72;6188355;23;21033;-85
2023/02/07 07:47:40;;;;;;;16.63;10.30;;;;;;;-3.56;100.00;98064.25;6186048;23;20411;-86
2023/02/07 07:50:06;;;;;;;21.47;11.97;;;;;;;-3.22;100.00;98071.34;6186304;23;20013;-85
2023/02/07 07:52:33;;;;;;;20.40;11.07;;;;;;;-2.86;100.00;98072.31;6186657;23;20017;-85
2023/02/07 07:55:00;;;;;;;20.73;9.80;;;;;;;-2.57;100.00;98068.31;6188612;23;20454;-86
2023/02/07 07:57:27;;;;;;;19.03;9.70;;;;;;;-2.56;100.00;98075.97;6217413;23;20431;-85
2023/02/07 07:59:53;;;;;;;17.23;9.70;;;;;;;-2.60;100.00;98084.66;6201825;23;20411;-86
2023/02/07 08:02:20;;;;;;;16.10;9.43;;;;;;;-2.44;100.00;98092.91;6187187;23;20423;-85
2023/02/07 08:04:46;;;;;;;15.37;9.40;;;;;;;-2.42;100.00;98084.25;6186530;23;20408;-85
2023/02/07 08:07:12;;;;;;;15.00;8.97;;;;;;;-2.16;100.00;98091.38;6187442;23;20407;-88
2023/02/07 08:09:39;;;;;;;15.97;9.53;;;;;;;-1.96;100.00;98101.25;6212343;23;20008;-86
2023/02/07 08:12:04;;;;;;;17.77;10.33;;;;;;;-2.13;100.00;98116.25;6186602;23;20095;-85
2023/02/07 08:14:30;;;;;;;13.57;9.40;;;;;;;-2.24;100.00;98108.78;6185832;23;20440;-86
2023/02/07 08:16:56;;;;;;;15.93;9.37;;;;;;;-2.58;100.00;98118.09;6186649;23;20023;-86
2023/02/07 08:19:22;;;;;;;17.13;10.47;;;;;;;-2.52;100.00;98116.25;6187904;23;20040;-85
2023/02/07 08:21:48;;;;;;;15.97;9.77;;;;;;;-2.61;100.00;98130.19;6212524;23;20016;-85
2023/02/07 08:24:14;;;;;;;19.23;9.93;;;;;;;-2.71;100.00;98120.94;6214156;23;20403;-85
2023/02/07 08:26:45;;;;;;;14.03;9.20;;;;;;;-2.70;100.00;98116.63;6188176;23;20009;-85
2023/02/07 08:29:11;;;;;;;15.87;9.33;;;;;;;-2.64;100.00;98124.25;6188637;23;20614;-85
2023/02/07 08:31:49;;;;;;;17.93;10.40;;;;;;;-2.32;100.00;98115.81;6212151;23;20412;-84
2023/02/07 08:34:17;;;;;;;18.03;10.03;;;;;;;-2.38;100.00;98111.66;6188108;23;20028;-84
2023/02/07 08:36:43;;;;;;;17.33;11.07;;;;;;;-1.87;100.00;98109.66;6213322;23;20395;-85
2023/02/07 08:39:13;;;;;;;16.73;10.33;;;;;;;-1.59;100.00;98102.06;6188682;23;21053;-85
2023/02/07 08:41:46;;;;;;;18.43;9.97;;;;;;;-1.53;100.00;98082.13;6186824;23;20103;-85
2023/02/07 08:44:19;;;;;;;16.45;9.05;;;;;;;-1.20;100.00;98088.13;6187602;23;20489;-86
2023/02/07 08:46:44;;;;;;;15.93;8.93;;;;;;;-2.58;100.00;98108.66;6214886;23;20016;-86
2023/02/07 08:49:10;;;;;;;15.77;9.13;;;;;;;-2.37;100.00;98110.78;6212712;23;20067;-84
2023/02/07 08:51:36;;;;;;;17.53;9.37;;;;;;;-1.73;100.00;98100.69;6186607;23;20020;-85
2023/02/07 08:54:01;;;;;;;15.83;9.50;;;;;;;-1.39;100.00;98092.09;6187570;23;20016;-85
2023/02/07 08:56:27;;;;;;;15.53;8.47;;;;;;;-1.58;100.00;98088.28;6187565;23;20012;-85
2023/02/07 08:58:53;;;;;;;17.63;10.43;;;;;;;-0.45;100.00;98090.31;6213263;23;20020;-86
2023/02/07 09:01:19;;;;;;;16.60;8.87;;;;;;;-1.67;100.00;98090.22;6187560;23;20043;-85
2023/02/07 09:03:54;;;;;;;16.87;9.30;;;;;;;-0.82;100.00;98080.22;6186874;23;20985;-85
2023/02/07 09:06:22;;;;;;;16.83;9.57;;;;;;;-1.96;100.00;98087.50;6212218;23;20356;-85
2023/02/07 09:08:51;;;;;;;16.13;9.57;;;;;;;-0.55;100.00;98068.22;6212441;23;20799;-85
2023/02/07 09:11:17;;;;;;;20.60;10.40;;;;;;;0.34;100.00;98068.00;6187045;23;20470;-86
2023/02/07 09:13:44;;;;;;;15.97;9.03;;;;;;;-0.64;100.00;98084.00;6212047;23;20431;-85
2023/02/07 09:16:12;;;;;;;13.40;8.20;;;;;;;0.07;100.00;98086.13;6237454;23;20481;-86
2023/02/07 09:18:41;;;;;;;15.60;9.10;;;;;;;0.99;100.00;98083.00;6237460;23;20514;-85
2023/02/07 09:21:15;;;;;;;15.27;8.97;;;;;;;0.53;100.00;98097.53;6186650;23;20416;-85
2023/02/07 09:23:40;;;;;;;17.65;9.20;;;;;;;0.90;100.00;98097.13;6214052;23;21063;-85
2023/02/07 09:26:07;;;;;;;16.33;9.17;;;;;;;-0.76;100.00;98091.22;6213553;23;20016;-85
2023/02/07 09:28:35;;;;;;;14.30;8.93;;;;;;;-1.41;100.00;98101.59;6186886;23;20510;-86
2023/02/07 09:31:08;;;;;;;14.77;8.47;;;;;;;-0.11;100.00;98079.78;6211716;23;20443;-85
2023/02/07 09:33:34;;;;;;;14.88;8.27;;;;;;;-0.12;100.00;98082.44;6188111;23;20419;-84
2023/02/07 09:36:04;;;;;;;14.17;8.43;;;;;;;-0.25;100.00;98076.78;6213977;23;20396;-85
2023/02/07 09:38:32;;;;;;;16.13;8.90;;;;;;;-0.78;100.00;98080.06;6219051;23;20083;-85
2023/02/07 09:41:34;;;;;;;14.77;9.10;;;;;;;-0.04;100.00;98075.25;6195987;23;20416;-85
2023/02/07 09:44:38;;;;;;;15.07;8.37;;;;;;;-0.84;100.00;98085.44;6203055;23;20988;-84
2023/02/07 09:47:24;;;;;;;14.47;8.73;;;;;;;-0.99;100.00;98083.28;6212224;23;20396;-85
2023/02/07 09:49:53;;;;;;;15.60;8.70;;;;;;;-0.63;100.00;98090.88;6188067;23;21036;-85
2023/02/07 09:52:32;;;;;;;16.90;8.40;;;;;;;-0.15;100.00;98091.13;6211068;23;20416;-85
2023/02/07 09:55:04;;;;;;;18.87;9.20;;;;;;;0.68;100.00;98086.66;6186600;23;20423;-85
2023/02/07 09:57:36;;;;;;;17.00;8.67;;;;;;;1.37;100.00;98080.75;6186369;23;20844;-84
2023/02/07 10:00:19;;;;;;;17.17;8.50;;;;;;;1.24;100.00;98085.56;6186782;23;20923;-85
2023/02/07 10:02:54;;;;;;;15.30;7.97;;;;;;;0.57;100.00;98088.78;6212135;23;20572;-85
2023/02/07 10:05:28;;;;;;;18.63;8.60;;;;;;;1.02;100.00;98095.00;6210601;23;20016;-85
2023/02/07 10:07:54;;;;;;;14.87;8.73;;;;;;;0.97;100.00;98099.50;6212831;23;21044;-86
2023/02/07 10:10:38;;;;;;;15.17;8.00;;;;;;;2.19;100.00;98097.47;6211741;23;20016;-85
2023/02/07 10:13:07;;;;;;;15.15;9.38;;;;;;;2.10;100.00;98085.69;6186182;23;20424;-85
2023/02/07 10:15:39;;;;;;;14.10;7.67;;;;;;;1.35;100.00;98088.59;6210608;23;20420;-84
2023/02/07 10:18:13;;;;;;;13.60;8.33;;;;;;;1.35;100.00;98098.13;6209480;23;20607;-85
2023/02/07 10:20:55;;;;;;;13.27;8.30;;;;;;;1.20;100.00;98099.50;6207780;23;20409;-85
2023/02/07 10:23:34;;;;;;;15.30;9.13;;;;;;;2.38;100.00;98096.72;6183645;23;20049;-84
2023/02/07 10:26:21;;;;;;;14.10;8.97;;;;;;;2.97;100.00;98093.34;6183630;23;20070;-85
2023/02/07 10:29:02;;;;;;;14.37;8.07;;;;;;;2.31;100.00;98096.13;6182629;23;20013;-85
2023/02/07 10:31:35;;;;;;;13.43;8.03;;;;;;;2.46;100.00;98098.09;6208581;23;20448;-85
2023/02/07 10:34:17;;;;;;;13.53;8.37;;;;;;;1.19;100.00;98097.84;6183618;23;20012;-84
2023/02/07 10:36:49;;;;;;;11.73;6.90;;;;;;;0.87;100.00;98101.56;6185207;23;20752;-84
2023/02/07 10:39:40;;;;;;;12.20;6.83;;;;;;;0.62;100.00;98093.81;6236461;23;20048;-85
2023/02/07 10:42:15;;;;;;;11.73;6.90;;;;;;;0.46;100.00;98106.41;6185202;23;20401;-85
2023/02/07 10:44:41;;;;;;;12.53;6.80;;;;;;;1.84;100.00;98096.25;6185605;23;20535;-85
2023/02/07 10:47:17;;;;;;;14.87;7.60;;;;;;;1.43;100.00;98103.84;6210523;23;20063;-85
2023/02/07 10:49:47;;;;;;;13.27;7.37;;;;;;;1.14;100.00;98105.78;6187350;23;20012;-85
2023/02/07 10:52:38;;;;;;;15.13;7.13;;;;;;;1.53;100.00;98102.63;6186103;23;20360;-86
2023/02/07 10:55:06;;;;;;;13.67;7.80;;;;;;;2.15;100.00;98106.28;6186739;23;20147;-85
2023/02/07 10:57:32;;;;;;;13.40;7.83;;;;;;;1.68;100.00;98113.31;6210539;23;20013;-85
2023/02/07 10:59:58;;;;;;;15.70;7.70;;;;;;;2.22;100.00;98106.88;6239603;23;20020;-85
2023/02/07 11:02:38;;;;;;;13.93;9.03;;;;;;;2.69;100.00;98101.50;6213571;23;20004;-86
2023/02/07 11:05:16;;;;;;;15.47;7.90;;;;;;;2.07;100.00;98111.75;6210661;23;20023;-84
2023/02/07 11:07:59;;;;;;;13.90;8.17;;;;;;;1.61;100.00;98116.16;6210762;23;20012;-85
2023/02/07 11:10:48;;;;;;;11.87;6.50;;;;;;;2.28;100.00;98107.50;6185833;23;20019;-84
2023/02/07 11:13:17;;;;;;;13.23;7.40;;;;;;;2.86;100.00;98103.38;6184048;23;20012;-84
2023/02/07 11:16:06;;;;;;;15.97;7.47;;;;;;;3.07;100.00;98103.28;6209377;23;20051;-85
2023/02/07 11:19:11;;;;;;;13.97;8.17;;;;;;;3.52;100.00;98098.69;6235013;23;20008;-84
2023/02/07 11:22:05;;;;;;;12.73;7.20;;;;;;;2.63;100.00;98112.13;6212969;23;20095;-85
2023/02/07 11:24:36;;;;;;;12.35;7.13;;;;;;;1.35;100.00;98118.88;6210648;23;20099;-85
2023/02/07 11:27:22;;;;;;;13.37;7.40;;;;;;;2.56;100.00;98112.38;6210065;23;20013;-85
2023/02/07 11:29:58;;;;;;;14.03;8.00;;;;;;;1.42;100.00;98107.38;6185133;23;20020;-85
2023/02/07 11:32:26;;;;;;;13.70;7.47;;;;;;;1.49;100.00;98101.03;6184408;23;20017;-86
2023/02/07 11:35:07;;;;;;;11.93;7.70;;;;;;;2.46;100.00;98097.25;6210076;23;20055;-85
2023/02/07 11:37:37;;;;;;;13.00;7.20;;;;;;;1.99;100.00;98095.66;6184719;23;20521;-84